sensor_id;sensor_type;location;lat;lon;timestamp;P1;durP1;ratioP1;P2;durP2;ratioP2
60076;SDS011;45950;45.208;20.374;2024-02-04T00:01:07;18.02;;;10.55;;
60076;SDS011;45950;45.208;20.374;2024-02-04T00:03:34;14.45;;;10.40;;
60076;SDS011;45950;45.208;20.374;2024-02-04T00:06:00;12.27;;;9.10;;
60076;SDS011;45950;45.208;20.374;2024-02-04T00:08:27;15.32;;;9.45;;
60076;SDS011;45950;45.208;20.374;2024-02-04T00:10:53;16.83;;;10.35;;
60076;SDS011;45950;45.208;20.374;2024-02-04T00:13:21;16.38;;;10.93;;
60076;SDS011;45950;45.208;20.374;2024-02-04T00:15:47;19.52;;;11.80;;
60076;SDS011;45950;45.208;20.374;2024-02-04T00:18:15;13.85;;;9.27;;
60076;SDS011;45950;45.208;20.374;2024-02-04T00:21:01;15.70;;;9.30;;
60076;SDS011;45950;45.208;20.374;2024-02-04T00:23:27;12.35;;;8.30;;
60076;SDS011;45950;45.208;20.374;2024-02-04T00:25:54;14.35;;;8.88;;
60076;SDS011;45950;45.208;20.374;2024-02-04T00:28:21;13.77;;;9.23;;
60076;SDS011;45950;45.208;20.374;2024-02-04T00:30:47;13.68;;;8.07;;
60076;SDS011;45950;45.208;20.374;2024-02-04T00:33:16;11.25;;;7.43;;
60076;SDS011;45950;45.208;20.374;2024-02-04T00:35:43;9.50;;;6.82;;
60076;SDS011;45950;45.208;20.374;2024-02-04T00:38:09;11.80;;;8.13;;
60076;SDS011;45950;45.208;20.374;2024-02-04T00:40:36;12.00;;;6.90;;
60076;SDS011;45950;45.208;20.374;2024-02-04T00:43:03;11.77;;;6.60;;
60076;SDS011;45950;45.208;20.374;2024-02-04T00:45:29;9.35;;;5.82;;
60076;SDS011;45950;45.208;20.374;2024-02-04T00:47:56;10.68;;;7.18;;
60076;SDS011;45950;45.208;20.374;2024-02-04T00:50:24;7.50;;;5.40;;
60076;SDS011;45950;45.208;20.374;2024-02-04T00:52:51;9.20;;;6.13;;
60076;SDS011;45950;45.208;20.374;2024-02-04T00:58:10;11.45;;;6.90;;
60076;SDS011;45950;45.208;20.374;2024-02-04T01:00:36;12.27;;;6.10;;
60076;SDS011;45950;45.208;20.374;2024-02-04T01:03:03;10.55;;;6.90;;
60076;SDS011;45950;45.208;20.374;2024-02-04T01:05:31;9.15;;;6.50;;
60076;SDS011;45950;45.208;20.374;2024-02-04T01:07:58;10.00;;;6.97;;
60076;SDS011;45950;45.208;20.374;2024-02-04T01:10:26;8.93;;;5.90;;
60076;SDS011;45950;45.208;20.374;2024-02-04T01:12:53;9.07;;;5.18;;
60076;SDS011;45950;45.208;20.374;2024-02-04T01:15:20;6.65;;;5.13;;
60076;SDS011;45950;45.208;20.374;2024-02-04T01:17:46;6.57;;;4.72;;
60076;SDS011;45950;45.208;20.374;2024-02-04T01:20:13;6.30;;;4.43;;
60076;SDS011;45950;45.208;20.374;2024-02-04T01:22:41;7.05;;;4.80;;
60076;SDS011;45950;45.208;20.374;2024-02-04T01:25:08;6.88;;;4.63;;
60076;SDS011;45950;45.208;20.374;2024-02-04T01:27:35;5.82;;;4.35;;
60076;SDS011;45950;45.208;20.374;2024-02-04T01:30:02;8.52;;;4.95;;
60076;SDS011;45950;45.208;20.374;2024-02-04T01:32:28;8.40;;;5.72;;
60076;SDS011;45950;45.208;20.374;2024-02-04T01:34:55;7.65;;;5.13;;
60076;SDS011;45950;45.208;20.374;2024-02-04T01:37:27;7.78;;;4.88;;
60076;SDS011;45950;45.208;20.374;2024-02-04T01:39:55;8.55;;;5.43;;
60076;SDS011;45950;45.208;20.374;2024-02-04T01:42:21;7.28;;;4.70;;
60076;SDS011;45950;45.208;20.374;2024-02-04T01:47:50;9.07;;;5.60;;
60076;SDS011;45950;45.208;20.374;2024-02-04T01:50:18;7.57;;;5.05;;
60076;SDS011;45950;45.208;20.374;2024-02-04T01:52:44;7.65;;;5.05;;
60076;SDS011;45950;45.208;20.374;2024-02-04T01:55:13;8.80;;;5.40;;
60076;SDS011;45950;45.208;20.374;2024-02-04T01:57:40;8.18;;;5.90;;
60076;SDS011;45950;45.208;20.374;2024-02-04T02:00:07;7.75;;;5.25;;
60076;SDS011;45950;45.208;20.374;2024-02-04T02:02:37;7.63;;;5.25;;
60076;SDS011;45950;45.208;20.374;2024-02-04T02:05:05;10.30;;;6.43;;
60076;SDS011;45950;45.208;20.374;2024-02-04T02:07:32;9.07;;;6.05;;
60076;SDS011;45950;45.208;20.374;2024-02-04T02:09:59;10.75;;;6.22;;
60076;SDS011;45950;45.208;20.374;2024-02-04T02:12:28;11.63;;;6.60;;
60076;SDS011;45950;45.208;20.374;2024-02-04T02:14:57;9.75;;;6.10;;
60076;SDS011;45950;45.208;20.374;2024-02-04T02:17:26;9.23;;;5.80;;
60076;SDS011;45950;45.208;20.374;2024-02-04T02:19:58;9.45;;;5.93;;
60076;SDS011;45950;45.208;20.374;2024-02-04T02:22:29;7.85;;;5.57;;
60076;SDS011;45950;45.208;20.374;2024-02-04T02:24:57;8.80;;;5.88;;
60076;SDS011;45950;45.208;20.374;2024-02-04T02:27:25;11.23;;;5.80;;
60076;SDS011;45950;45.208;20.374;2024-02-04T02:29:52;10.65;;;6.10;;
60076;SDS011;45950;45.208;20.374;2024-02-04T02:32:18;10.18;;;6.65;;
60076;SDS011;45950;45.208;20.374;2024-02-04T02:34:44;8.65;;;6.32;;
60076;SDS011;45950;45.208;20.374;2024-02-04T02:40:14;8.45;;;5.85;;
60076;SDS011;45950;45.208;20.374;2024-02-04T02:42:43;8.25;;;6.07;;
60076;SDS011;45950;45.208;20.374;2024-02-04T02:45:09;9.85;;;6.05;;
60076;SDS011;45950;45.208;20.374;2024-02-04T02:47:37;9.77;;;6.00;;
60076;SDS011;45950;45.208;20.374;2024-02-04T02:50:05;10.20;;;5.70;;
60076;SDS011;45950;45.208;20.374;2024-02-04T02:52:32;9.23;;;5.63;;
60076;SDS011;45950;45.208;20.374;2024-02-04T02:54:58;8.45;;;5.80;;
60076;SDS011;45950;45.208;20.374;2024-02-04T02:57:26;10.10;;;6.03;;
60076;SDS011;45950;45.208;20.374;2024-02-04T02:59:53;10.20;;;5.97;;
60076;SDS011;45950;45.208;20.374;2024-02-04T03:02:29;8.95;;;6.00;;
60076;SDS011;45950;45.208;20.374;2024-02-04T03:04:56;10.60;;;7.20;;
60076;SDS011;45950;45.208;20.374;2024-02-04T03:07:23;10.70;;;7.55;;
60076;SDS011;45950;45.208;20.374;2024-02-04T03:10:00;8.65;;;6.38;;
60076;SDS011;45950;45.208;20.374;2024-02-04T03:12:29;9.45;;;6.38;;
60076;SDS011;45950;45.208;20.374;2024-02-04T03:14:56;11.07;;;7.50;;
60076;SDS011;45950;45.208;20.374;2024-02-04T03:20:25;10.88;;;6.40;;
60076;SDS011;45950;45.208;20.374;2024-02-04T03:22:51;9.90;;;6.28;;
60076;SDS011;45950;45.208;20.374;2024-02-04T03:25:18;11.10;;;7.25;;
60076;SDS011;45950;45.208;20.374;2024-02-04T03:27:46;11.88;;;7.45;;
60076;SDS011;45950;45.208;20.374;2024-02-04T03:30:13;8.60;;;6.50;;
60076;SDS011;45950;45.208;20.374;2024-02-04T03:32:39;10.15;;;7.32;;
60076;SDS011;45950;45.208;20.374;2024-02-04T03:35:06;11.48;;;8.50;;
60076;SDS011;45950;45.208;20.374;2024-02-04T03:37:33;11.63;;;8.18;;
60076;SDS011;45950;45.208;20.374;2024-02-04T03:40:00;12.38;;;8.68;;
60076;SDS011;45950;45.208;20.374;2024-02-04T03:42:26;12.32;;;8.27;;
60076;SDS011;45950;45.208;20.374;2024-02-04T03:44:55;14.23;;;8.93;;
60076;SDS011;45950;45.208;20.374;2024-02-04T03:50:20;12.57;;;8.02;;
60076;SDS011;45950;45.208;20.374;2024-02-04T03:52:47;13.88;;;8.63;;
60076;SDS011;45950;45.208;20.374;2024-02-04T03:55:13;14.32;;;8.80;;
60076;SDS011;45950;45.208;20.374;2024-02-04T03:57:40;15.60;;;8.55;;
60076;SDS011;45950;45.208;20.374;2024-02-04T04:00:15;13.27;;;7.70;;
60076;SDS011;45950;45.208;20.374;2024-02-04T04:02:42;10.95;;;8.20;;
60076;SDS011;45950;45.208;20.374;2024-02-04T04:05:10;53.25;;;30.75;;
60076;SDS011;45950;45.208;20.374;2024-02-04T04:07:38;45.22;;;28.02;;
60076;SDS011;45950;45.208;20.374;2024-02-04T04:10:22;22.70;;;14.80;;
60076;SDS011;45950;45.208;20.374;2024-02-04T04:12:48;13.25;;;9.95;;
60076;SDS011;45950;45.208;20.374;2024-02-04T04:15:16;14.90;;;10.73;;
60076;SDS011;45950;45.208;20.374;2024-02-04T04:17:43;14.32;;;10.77;;
60076;SDS011;45950;45.208;20.374;2024-02-04T04:20:10;16.60;;;11.10;;
60076;SDS011;45950;45.208;20.374;2024-02-04T04:22:38;19.00;;;12.48;;
60076;SDS011;45950;45.208;20.374;2024-02-04T04:25:05;22.52;;;14.10;;
60076;SDS011;45950;45.208;20.374;2024-02-04T04:27:31;25.23;;;16.38;;
60076;SDS011;45950;45.208;20.374;2024-02-04T04:29:58;17.42;;;10.60;;
60076;SDS011;45950;45.208;20.374;2024-02-04T04:32:26;8.77;;;6.50;;
60076;SDS011;45950;45.208;20.374;2024-02-04T04:34:52;6.65;;;4.97;;
60076;SDS011;45950;45.208;20.374;2024-02-04T04:37:20;8.90;;;6.93;;
60076;SDS011;45950;45.208;20.374;2024-02-04T04:39:47;6.63;;;4.90;;
60076;SDS011;45950;45.208;20.374;2024-02-04T04:42:13;7.15;;;5.80;;
60076;SDS011;45950;45.208;20.374;2024-02-04T04:44:40;9.18;;;6.15;;
60076;SDS011;45950;45.208;20.374;2024-02-04T04:47:07;18.52;;;13.07;;
60076;SDS011;45950;45.208;20.374;2024-02-04T04:49:35;11.35;;;7.20;;
60076;SDS011;45950;45.208;20.374;2024-02-04T04:52:01;7.68;;;5.95;;
60076;SDS011;45950;45.208;20.374;2024-02-04T04:54:28;7.72;;;5.13;;
60076;SDS011;45950;45.208;20.374;2024-02-04T04:56:54;6.72;;;5.20;;
60076;SDS011;45950;45.208;20.374;2024-02-04T04:59:21;7.97;;;5.70;;
60076;SDS011;45950;45.208;20.374;2024-02-04T05:02:03;7.35;;;5.13;;
60076;SDS011;45950;45.208;20.374;2024-02-04T05:04:29;11.07;;;7.07;;
60076;SDS011;45950;45.208;20.374;2024-02-04T05:06:57;8.88;;;5.90;;
60076;SDS011;45950;45.208;20.374;2024-02-04T05:09:24;9.48;;;6.82;;
60076;SDS011;45950;45.208;20.374;2024-02-04T05:11:51;147.57;;;77.25;;
60076;SDS011;45950;45.208;20.374;2024-02-04T05:14:30;144.95;;;81.63;;
60076;SDS011;45950;45.208;20.374;2024-02-04T05:16:57;42.75;;;26.00;;
60076;SDS011;45950;45.208;20.374;2024-02-04T05:19:24;14.02;;;9.90;;
60076;SDS011;45950;45.208;20.374;2024-02-04T05:24:41;12.15;;;7.90;;
60076;SDS011;45950;45.208;20.374;2024-02-04T05:27:07;12.30;;;8.20;;
60076;SDS011;45950;45.208;20.374;2024-02-04T05:32:19;9.10;;;6.00;;
60076;SDS011;45950;45.208;20.374;2024-02-04T05:34:46;8.30;;;4.25;;
60076;SDS011;45950;45.208;20.374;2024-02-04T05:40:03;9.55;;;6.72;;
60076;SDS011;45950;45.208;20.374;2024-02-04T05:42:30;19.80;;;11.75;;
60076;SDS011;45950;45.208;20.374;2024-02-04T05:45:02;10.68;;;7.00;;
60076;SDS011;45950;45.208;20.374;2024-02-04T05:47:30;8.33;;;6.03;;
60076;SDS011;45950;45.208;20.374;2024-02-04T05:50:00;9.10;;;6.15;;
60076;SDS011;45950;45.208;20.374;2024-02-04T05:55:30;11.88;;;7.50;;
60076;SDS011;45950;45.208;20.374;2024-02-04T05:57:57;12.68;;;8.38;;
60076;SDS011;45950;45.208;20.374;2024-02-04T06:00:24;10.85;;;7.15;;
60076;SDS011;45950;45.208;20.374;2024-02-04T06:02:51;12.23;;;8.00;;
60076;SDS011;45950;45.208;20.374;2024-02-04T06:05:18;11.60;;;8.23;;
60076;SDS011;45950;45.208;20.374;2024-02-04T06:07:44;12.25;;;8.23;;
60076;SDS011;45950;45.208;20.374;2024-02-04T06:10:13;12.95;;;8.13;;
60076;SDS011;45950;45.208;20.374;2024-02-04T06:12:42;13.18;;;8.25;;
60076;SDS011;45950;45.208;20.374;2024-02-04T06:15:14;11.88;;;7.32;;
60076;SDS011;45950;45.208;20.374;2024-02-04T06:17:41;12.88;;;8.70;;
60076;SDS011;45950;45.208;20.374;2024-02-04T06:20:08;12.98;;;8.13;;
60076;SDS011;45950;45.208;20.374;2024-02-04T06:22:35;13.02;;;9.00;;
60076;SDS011;45950;45.208;20.374;2024-02-04T06:25:02;10.52;;;7.80;;
60076;SDS011;45950;45.208;20.374;2024-02-04T06:27:29;12.55;;;8.45;;
60076;SDS011;45950;45.208;20.374;2024-02-04T06:30:07;10.68;;;7.85;;
60076;SDS011;45950;45.208;20.374;2024-02-04T06:32:34;10.63;;;7.15;;
60076;SDS011;45950;45.208;20.374;2024-02-04T06:35:00;11.35;;;7.43;;
60076;SDS011;45950;45.208;20.374;2024-02-04T06:37:27;28.98;;;18.50;;
60076;SDS011;45950;45.208;20.374;2024-02-04T06:39:54;42.30;;;22.95;;
60076;SDS011;45950;45.208;20.374;2024-02-04T06:42:21;36.30;;;20.17;;
60076;SDS011;45950;45.208;20.374;2024-02-04T06:44:49;50.80;;;26.50;;
60076;SDS011;45950;45.208;20.374;2024-02-04T06:47:17;73.63;;;36.38;;
60076;SDS011;45950;45.208;20.374;2024-02-04T06:49:44;79.55;;;37.70;;
60076;SDS011;45950;45.208;20.374;2024-02-04T06:52:11;89.40;;;43.20;;
60076;SDS011;45950;45.208;20.374;2024-02-04T06:54:38;50.33;;;29.35;;
60076;SDS011;45950;45.208;20.374;2024-02-04T06:57:04;46.90;;;30.58;;
60076;SDS011;45950;45.208;20.374;2024-02-04T07:02:23;25.00;;;16.98;;
60076;SDS011;45950;45.208;20.374;2024-02-04T07:04:50;18.77;;;13.73;;
60076;SDS011;45950;45.208;20.374;2024-02-04T07:07:17;16.30;;;11.80;;
60076;SDS011;45950;45.208;20.374;2024-02-04T07:09:43;13.73;;;9.95;;
60076;SDS011;45950;45.208;20.374;2024-02-04T07:12:10;21.42;;;14.82;;
60076;SDS011;45950;45.208;20.374;2024-02-04T07:14:36;17.05;;;12.82;;
60076;SDS011;45950;45.208;20.374;2024-02-04T07:17:03;19.10;;;13.07;;
60076;SDS011;45950;45.208;20.374;2024-02-04T07:19:31;15.23;;;11.65;;
60076;SDS011;45950;45.208;20.374;2024-02-04T07:21:58;23.52;;;14.85;;
60076;SDS011;45950;45.208;20.374;2024-02-04T07:24:24;83.65;;;45.92;;
60076;SDS011;45950;45.208;20.374;2024-02-04T07:26:51;97.93;;;55.45;;
60076;SDS011;45950;45.208;20.374;2024-02-04T07:29:27;31.05;;;19.50;;
60076;SDS011;45950;45.208;20.374;2024-02-04T07:31:53;19.40;;;12.75;;
60076;SDS011;45950;45.208;20.374;2024-02-04T07:34:20;17.75;;;11.20;;
60076;SDS011;45950;45.208;20.374;2024-02-04T07:39:51;28.65;;;18.27;;
60076;SDS011;45950;45.208;20.374;2024-02-04T07:42:17;35.20;;;20.83;;
60076;SDS011;45950;45.208;20.374;2024-02-04T07:44:44;29.50;;;19.15;;
60076;SDS011;45950;45.208;20.374;2024-02-04T07:47:21;27.23;;;15.95;;
60076;SDS011;45950;45.208;20.374;2024-02-04T07:49:48;22.88;;;15.18;;
60076;SDS011;45950;45.208;20.374;2024-02-04T07:52:15;22.02;;;14.13;;
60076;SDS011;45950;45.208;20.374;2024-02-04T07:54:41;18.60;;;13.23;;
60076;SDS011;45950;45.208;20.374;2024-02-04T07:57:10;20.58;;;13.90;;
60076;SDS011;45950;45.208;20.374;2024-02-04T07:59:36;19.77;;;13.73;;
60076;SDS011;45950;45.208;20.374;2024-02-04T08:02:03;21.35;;;14.15;;
60076;SDS011;45950;45.208;20.374;2024-02-04T08:04:32;18.75;;;13.00;;
60076;SDS011;45950;45.208;20.374;2024-02-04T08:06:58;19.73;;;12.52;;
60076;SDS011;45950;45.208;20.374;2024-02-04T08:09:25;21.83;;;13.75;;
60076;SDS011;45950;45.208;20.374;2024-02-04T08:11:52;19.63;;;12.60;;
60076;SDS011;45950;45.208;20.374;2024-02-04T08:14:20;31.77;;;18.25;;
60076;SDS011;45950;45.208;20.374;2024-02-04T08:16:47;129.10;;;59.55;;
60076;SDS011;45950;45.208;20.374;2024-02-04T08:19:14;183.20;;;73.05;;
60076;SDS011;45950;45.208;20.374;2024-02-04T08:21:50;122.68;;;54.63;;
60076;SDS011;45950;45.208;20.374;2024-02-04T08:24:16;54.38;;;29.52;;
60076;SDS011;45950;45.208;20.374;2024-02-04T08:26:43;36.42;;;21.90;;
60076;SDS011;45950;45.208;20.374;2024-02-04T08:29:11;28.90;;;18.77;;
60076;SDS011;45950;45.208;20.374;2024-02-04T08:31:39;17.45;;;12.15;;
60076;SDS011;45950;45.208;20.374;2024-02-04T08:34:05;19.48;;;12.00;;
60076;SDS011;45950;45.208;20.374;2024-02-04T08:36:50;21.20;;;13.48;;
60076;SDS011;45950;45.208;20.374;2024-02-04T08:39:17;20.33;;;12.85;;
60076;SDS011;45950;45.208;20.374;2024-02-04T08:41:45;14.38;;;9.10;;
60076;SDS011;45950;45.208;20.374;2024-02-04T08:44:29;6.63;;;3.97;;
60076;SDS011;45950;45.208;20.374;2024-02-04T08:46:57;5.93;;;3.65;;
60076;SDS011;45950;45.208;20.374;2024-02-04T08:49:24;6.55;;;3.47;;
60076;SDS011;45950;45.208;20.374;2024-02-04T08:51:50;4.50;;;2.97;;
60076;SDS011;45950;45.208;20.374;2024-02-04T08:54:17;4.95;;;3.13;;
60076;SDS011;45950;45.208;20.374;2024-02-04T08:56:44;5.20;;;3.20;;
60076;SDS011;45950;45.208;20.374;2024-02-04T08:59:11;4.38;;;2.83;;
60076;SDS011;45950;45.208;20.374;2024-02-04T09:01:38;4.18;;;2.85;;
60076;SDS011;45950;45.208;20.374;2024-02-04T09:04:06;4.95;;;3.15;;
60076;SDS011;45950;45.208;20.374;2024-02-04T09:06:34;5.30;;;3.58;;
60076;SDS011;45950;45.208;20.374;2024-02-04T09:09:01;9.30;;;4.47;;
60076;SDS011;45950;45.208;20.374;2024-02-04T09:11:27;11.55;;;5.75;;
60076;SDS011;45950;45.208;20.374;2024-02-04T09:13:54;11.70;;;5.72;;
60076;SDS011;45950;45.208;20.374;2024-02-04T09:16:21;12.50;;;6.00;;
60076;SDS011;45950;45.208;20.374;2024-02-04T09:18:47;10.93;;;5.90;;
60076;SDS011;45950;45.208;20.374;2024-02-04T09:21:15;12.50;;;5.95;;
60076;SDS011;45950;45.208;20.374;2024-02-04T09:23:42;7.03;;;4.30;;
60076;SDS011;45950;45.208;20.374;2024-02-04T09:26:09;6.00;;;3.80;;
60076;SDS011;45950;45.208;20.374;2024-02-04T09:28:35;13.25;;;6.30;;
60076;SDS011;45950;45.208;20.374;2024-02-04T09:31:02;19.58;;;8.13;;
60076;SDS011;45950;45.208;20.374;2024-02-04T09:33:29;14.18;;;7.43;;
60076;SDS011;45950;45.208;20.374;2024-02-04T09:35:56;8.15;;;4.65;;
60076;SDS011;45950;45.208;20.374;2024-02-04T09:38:24;12.85;;;5.75;;
60076;SDS011;45950;45.208;20.374;2024-02-04T09:40:50;10.35;;;5.95;;
60076;SDS011;45950;45.208;20.374;2024-02-04T09:43:17;7.38;;;4.82;;
60076;SDS011;45950;45.208;20.374;2024-02-04T09:45:44;8.95;;;5.07;;
60076;SDS011;45950;45.208;20.374;2024-02-04T09:48:11;7.55;;;3.97;;
60076;SDS011;45950;45.208;20.374;2024-02-04T09:50:38;5.20;;;4.45;;
60076;SDS011;45950;45.208;20.374;2024-02-04T09:53:04;6.32;;;4.00;;
60076;SDS011;45950;45.208;20.374;2024-02-04T09:55:34;4.13;;;3.20;;
60076;SDS011;45950;45.208;20.374;2024-02-04T09:58:03;7.35;;;3.58;;
60076;SDS011;45950;45.208;20.374;2024-02-04T10:00:29;2.97;;;2.00;;
60076;SDS011;45950;45.208;20.374;2024-02-04T10:03:04;4.78;;;2.13;;
60076;SDS011;45950;45.208;20.374;2024-02-04T10:05:31;3.35;;;2.13;;
60076;SDS011;45950;45.208;20.374;2024-02-04T10:07:57;16.90;;;8.30;;
60076;SDS011;45950;45.208;20.374;2024-02-04T10:10:24;3.83;;;2.22;;
60076;SDS011;45950;45.208;20.374;2024-02-04T10:12:52;3.55;;;2.25;;
60076;SDS011;45950;45.208;20.374;2024-02-04T10:15:19;5.10;;;2.78;;
60076;SDS011;45950;45.208;20.374;2024-02-04T10:17:45;4.95;;;2.40;;
60076;SDS011;45950;45.208;20.374;2024-02-04T10:20:12;5.15;;;3.08;;
60076;SDS011;45950;45.208;20.374;2024-02-04T10:22:57;2.65;;;1.73;;
60076;SDS011;45950;45.208;20.374;2024-02-04T10:25:24;5.28;;;2.85;;
60076;SDS011;45950;45.208;20.374;2024-02-04T10:27:52;3.05;;;2.00;;
60076;SDS011;45950;45.208;20.374;2024-02-04T10:30:19;2.97;;;1.90;;
60076;SDS011;45950;45.208;20.374;2024-02-04T10:32:46;4.03;;;2.60;;
60076;SDS011;45950;45.208;20.374;2024-02-04T10:35:13;3.10;;;2.10;;
60076;SDS011;45950;45.208;20.374;2024-02-04T10:37:40;3.53;;;2.20;;
60076;SDS011;45950;45.208;20.374;2024-02-04T10:40:08;3.33;;;2.20;;
60076;SDS011;45950;45.208;20.374;2024-02-04T10:42:35;3.17;;;2.10;;
60076;SDS011;45950;45.208;20.374;2024-02-04T10:45:03;4.60;;;2.10;;
60076;SDS011;45950;45.208;20.374;2024-02-04T10:50:33;4.43;;;2.50;;
60076;SDS011;45950;45.208;20.374;2024-02-04T10:53:02;4.68;;;2.60;;
60076;SDS011;45950;45.208;20.374;2024-02-04T10:55:32;4.43;;;2.80;;
60076;SDS011;45950;45.208;20.374;2024-02-04T10:57:59;4.15;;;2.70;;
60076;SDS011;45950;45.208;20.374;2024-02-04T11:00:27;4.18;;;2.55;;
60076;SDS011;45950;45.208;20.374;2024-02-04T11:02:54;3.42;;;2.33;;
60076;SDS011;45950;45.208;20.374;2024-02-04T11:05:22;4.38;;;2.67;;
60076;SDS011;45950;45.208;20.374;2024-02-04T11:07:49;2.88;;;2.15;;
60076;SDS011;45950;45.208;20.374;2024-02-04T11:10:16;3.38;;;2.13;;
60076;SDS011;45950;45.208;20.374;2024-02-04T11:12:44;2.15;;;1.40;;
60076;SDS011;45950;45.208;20.374;2024-02-04T11:15:12;1.90;;;1.30;;
60076;SDS011;45950;45.208;20.374;2024-02-04T11:17:47;1.85;;;1.15;;
60076;SDS011;45950;45.208;20.374;2024-02-04T11:20:22;1.88;;;1.30;;
60076;SDS011;45950;45.208;20.374;2024-02-04T11:25:47;1.67;;;1.10;;
60076;SDS011;45950;45.208;20.374;2024-02-04T11:28:15;2.03;;;1.30;;
60076;SDS011;45950;45.208;20.374;2024-02-04T11:30:42;1.95;;;1.35;;
60076;SDS011;45950;45.208;20.374;2024-02-04T11:33:11;2.17;;;1.48;;
60076;SDS011;45950;45.208;20.374;2024-02-04T11:35:38;2.60;;;1.40;;
60076;SDS011;45950;45.208;20.374;2024-02-04T11:38:05;2.72;;;1.70;;
60076;SDS011;45950;45.208;20.374;2024-02-04T11:40:34;2.40;;;1.40;;
60076;SDS011;45950;45.208;20.374;2024-02-04T11:43:04;2.67;;;1.67;;
60076;SDS011;45950;45.208;20.374;2024-02-04T11:45:31;3.15;;;2.05;;
60076;SDS011;45950;45.208;20.374;2024-02-04T11:48:01;2.53;;;1.75;;
60076;SDS011;45950;45.208;20.374;2024-02-04T11:50:29;2.42;;;1.60;;
60076;SDS011;45950;45.208;20.374;2024-02-04T11:53:02;2.58;;;1.55;;
60076;SDS011;45950;45.208;20.374;2024-02-04T11:55:31;2.05;;;1.50;;
60076;SDS011;45950;45.208;20.374;2024-02-04T11:57:58;2.47;;;1.60;;
60076;SDS011;45950;45.208;20.374;2024-02-04T12:03:11;11.15;;;6.97;;
60076;SDS011;45950;45.208;20.374;2024-02-04T12:05:39;1.90;;;1.33;;
60076;SDS011;45950;45.208;20.374;2024-02-04T12:10:56;1.35;;;0.93;;
60076;SDS011;45950;45.208;20.374;2024-02-04T12:13:23;2.40;;;1.33;;
60076;SDS011;45950;45.208;20.374;2024-02-04T12:15:50;2.65;;;1.13;;
60076;SDS011;45950;45.208;20.374;2024-02-04T12:18:16;2.55;;;1.27;;
60076;SDS011;45950;45.208;20.374;2024-02-04T12:20:46;2.17;;;1.15;;
60076;SDS011;45950;45.208;20.374;2024-02-04T12:23:14;1.83;;;1.13;;
60076;SDS011;45950;45.208;20.374;2024-02-04T12:25:41;2.42;;;1.55;;
60076;SDS011;45950;45.208;20.374;2024-02-04T12:28:07;3.00;;;1.55;;
60076;SDS011;45950;45.208;20.374;2024-02-04T12:30:34;2.60;;;1.77;;
60076;SDS011;45950;45.208;20.374;2024-02-04T12:33:01;2.25;;;1.40;;
60076;SDS011;45950;45.208;20.374;2024-02-04T12:35:29;2.05;;;1.00;;
60076;SDS011;45950;45.208;20.374;2024-02-04T12:37:58;1.50;;;1.00;;
60076;SDS011;45950;45.208;20.374;2024-02-04T12:40:24;1.48;;;0.93;;
60076;SDS011;45950;45.208;20.374;2024-02-04T12:42:52;1.48;;;1.10;;
60076;SDS011;45950;45.208;20.374;2024-02-04T12:48:10;2.42;;;1.27;;
60076;SDS011;45950;45.208;20.374;2024-02-04T12:50:40;1.30;;;0.90;;
60076;SDS011;45950;45.208;20.374;2024-02-04T12:53:08;1.35;;;1.05;;
60076;SDS011;45950;45.208;20.374;2024-02-04T12:55:36;1.38;;;0.98;;
60076;SDS011;45950;45.208;20.374;2024-02-04T12:58:04;4.15;;;1.13;;
60076;SDS011;45950;45.208;20.374;2024-02-04T13:00:31;1.10;;;0.88;;
60076;SDS011;45950;45.208;20.374;2024-02-04T13:02:58;1.80;;;0.70;;
60076;SDS011;45950;45.208;20.374;2024-02-04T13:05:25;1.75;;;0.70;;
60076;SDS011;45950;45.208;20.374;2024-02-04T13:07:53;1.05;;;0.75;;
60076;SDS011;45950;45.208;20.374;2024-02-04T13:10:22;1.38;;;0.80;;
60076;SDS011;45950;45.208;20.374;2024-02-04T13:12:57;1.90;;;1.20;;
60076;SDS011;45950;45.208;20.374;2024-02-04T13:15:36;1.23;;;0.90;;
60076;SDS011;45950;45.208;20.374;2024-02-04T13:18:03;1.67;;;1.02;;
60076;SDS011;45950;45.208;20.374;2024-02-04T13:20:30;1.67;;;1.00;;
60076;SDS011;45950;45.208;20.374;2024-02-04T13:22:57;1.70;;;1.00;;
60076;SDS011;45950;45.208;20.374;2024-02-04T13:25:26;2.10;;;0.98;;
60076;SDS011;45950;45.208;20.374;2024-02-04T13:27:53;2.13;;;1.38;;
60076;SDS011;45950;45.208;20.374;2024-02-04T13:30:19;4.60;;;1.75;;
60076;SDS011;45950;45.208;20.374;2024-02-04T13:32:46;1.60;;;1.05;;
60076;SDS011;45950;45.208;20.374;2024-02-04T13:35:13;1.50;;;1.10;;
60076;SDS011;45950;45.208;20.374;2024-02-04T13:37:41;3.00;;;1.00;;
60076;SDS011;45950;45.208;20.374;2024-02-04T13:40:12;1.33;;;0.90;;
60076;SDS011;45950;45.208;20.374;2024-02-04T13:42:42;2.28;;;1.20;;
60076;SDS011;45950;45.208;20.374;2024-02-04T13:45:09;2.40;;;1.55;;
60076;SDS011;45950;45.208;20.374;2024-02-04T13:47:38;1.52;;;1.10;;
60076;SDS011;45950;45.208;20.374;2024-02-04T13:50:05;1.67;;;1.10;;
60076;SDS011;45950;45.208;20.374;2024-02-04T13:52:33;8.25;;;2.30;;
60076;SDS011;45950;45.208;20.374;2024-02-04T13:55:00;3.10;;;1.73;;
60076;SDS011;45950;45.208;20.374;2024-02-04T13:57:26;2.83;;;1.83;;
60076;SDS011;45950;45.208;20.374;2024-02-04T13:59:55;4.65;;;2.83;;
60076;SDS011;45950;45.208;20.374;2024-02-04T14:02:21;3.33;;;2.30;;
60076;SDS011;45950;45.208;20.374;2024-02-04T14:04:50;2.72;;;1.92;;
60076;SDS011;45950;45.208;20.374;2024-02-04T14:07:17;2.67;;;1.77;;
60076;SDS011;45950;45.208;20.374;2024-02-04T14:09:52;3.50;;;1.50;;
60076;SDS011;45950;45.208;20.374;2024-02-04T14:12:18;2.85;;;1.75;;
60076;SDS011;45950;45.208;20.374;2024-02-04T14:14:45;3.55;;;2.08;;
60076;SDS011;45950;45.208;20.374;2024-02-04T14:20:15;2.60;;;1.77;;
60076;SDS011;45950;45.208;20.374;2024-02-04T14:22:43;4.53;;;2.60;;
60076;SDS011;45950;45.208;20.374;2024-02-04T14:25:10;10.48;;;5.80;;
60076;SDS011;45950;45.208;20.374;2024-02-04T14:27:36;17.50;;;9.68;;
60076;SDS011;45950;45.208;20.374;2024-02-04T14:30:03;24.80;;;13.43;;
60076;SDS011;45950;45.208;20.374;2024-02-04T14:32:32;11.27;;;7.20;;
60076;SDS011;45950;45.208;20.374;2024-02-04T14:34:58;3.47;;;2.05;;
60076;SDS011;45950;45.208;20.374;2024-02-04T14:37:26;2.92;;;1.65;;
60076;SDS011;45950;45.208;20.374;2024-02-04T14:39:53;2.00;;;1.40;;
60076;SDS011;45950;45.208;20.374;2024-02-04T14:42:19;2.72;;;1.52;;
60076;SDS011;45950;45.208;20.374;2024-02-04T14:44:52;3.65;;;1.60;;
60076;SDS011;45950;45.208;20.374;2024-02-04T14:47:19;3.30;;;1.83;;
60076;SDS011;45950;45.208;20.374;2024-02-04T14:49:46;2.35;;;1.55;;
60076;SDS011;45950;45.208;20.374;2024-02-04T14:52:14;5.43;;;1.90;;
60076;SDS011;45950;45.208;20.374;2024-02-04T14:54:44;5.72;;;1.92;;
60076;SDS011;45950;45.208;20.374;2024-02-04T14:57:11;3.28;;;2.15;;
60076;SDS011;45950;45.208;20.374;2024-02-04T14:59:38;3.60;;;2.50;;
60076;SDS011;45950;45.208;20.374;2024-02-04T15:02:10;10.52;;;5.60;;
60076;SDS011;45950;45.208;20.374;2024-02-04T15:04:37;10.00;;;5.78;;
60076;SDS011;45950;45.208;20.374;2024-02-04T15:07:04;34.30;;;14.27;;
60076;SDS011;45950;45.208;20.374;2024-02-04T15:09:46;18.42;;;9.02;;
60076;SDS011;45950;45.208;20.374;2024-02-04T15:12:15;15.75;;;9.00;;
60076;SDS011;45950;45.208;20.374;2024-02-04T15:14:44;7.20;;;5.38;;
60076;SDS011;45950;45.208;20.374;2024-02-04T15:17:10;5.60;;;3.85;;
60076;SDS011;45950;45.208;20.374;2024-02-04T15:19:37;5.68;;;3.88;;